Time;durP1;ratioP1;P1;durP2;ratioP2;P2;SDS_P1;SDS_P2;PMS_P1;PMS_P2;Temp;Humidity;BMP_temperature;BMP_pressure;BME280_temperature;BME280_humidity;BME280_pressure;Samples;Min_cycle;Max_cycle;Signal;HPM_P1;HPM_P2
2023/04/02 00:00:29;;;;;;;1.70;1.03;;;;;;;10.36;92.80;97369.28;4176958;28;20632;-88
2023/04/02 00:02:33;;;;;;;1.77;1.20;;;;;;;10.35;92.64;97367.59;4164936;28;21053;-87
2023/04/02 00:04:36;;;;;;;3.03;1.00;;;;;;;10.38;93.31;97369.97;4184231;28;20671;-88
2023/04/02 00:06:43;;;;;;;1.40;1.00;;;;;;;10.37;93.42;97375.31;4185768;28;20624;-88
2023/04/02 00:08:47;;;;;;;2.23;1.00;;;;;;;10.39;93.43;97370.81;4184710;28;20655;-88
2023/04/02 00:10:53;;;;;;;1.50;1.03;;;;;;;10.44;92.74;97376.50;4190630;28;20630;-87
2023/04/02 00:13:01;;;;;;;1.70;1.40;;;;;;;10.47;94.19;97378.84;4199432;28;21112;-88
2023/04/02 00:15:05;;;;;;;1.57;1.03;;;;;;;10.49;94.11;97372.56;4185211;28;20623;-88
2023/04/02 00:17:08;;;;;;;1.57;1.00;;;;;;;10.53;93.28;97378.38;4176289;28;20702;-87
2023/04/02 00:19:17;;;;;;;2.30;0.80;;;;;;;10.56;94.20;97380.72;4187135;28;20691;-88
2023/04/02 00:21:22;;;;;;;3.10;0.97;;;;;;;10.59;94.16;97386.53;4192018;28;20651;-88
2023/04/02 00:23:25;;;;;;;2.60;1.07;;;;;;;10.62;94.38;97390.66;4193011;28;20635;-87
2023/04/02 00:25:30;;;;;;;2.17;1.00;;;;;;;10.63;94.18;97393.16;4185391;28;21073;-87
2023/04/02 00:27:36;;;;;;;1.90;1.20;;;;;;;10.64;94.92;97391.38;4183624;28;21217;-87
2023/04/02 00:29:45;;;;;;;2.50;1.00;;;;;;;10.64;94.58;97391.38;4194183;28;20616;-87
2023/04/02 00:31:51;;;;;;;3.53;1.10;;;;;;;10.64;93.50;97394.78;4183846;28;20666;-87
2023/04/02 00:33:54;;;;;;;1.43;1.10;;;;;;;10.65;94.26;97403.47;4175924;28;20671;-87
2023/04/02 00:35:57;;;;;;;1.67;1.20;;;;;;;10.65;94.26;97403.47;4187759;28;21251;-87
2023/04/02 00:38:02;;;;;;;1.67;1.07;;;;;;;10.64;93.31;97405.22;4178329;28;20643;-87
2023/04/02 00:40:09;;;;;;;1.70;1.00;;;;;;;10.63;93.72;97392.31;4176543;28;20717;-87
2023/04/02 00:42:13;;;;;;;1.53;0.80;;;;;;;10.65;93.97;97398.25;4188489;28;20673;-87
2023/04/02 00:44:20;;;;;;;1.73;0.87;;;;;;;10.65;93.34;97393.03;4169319;28;20748;-87
2023/04/02 00:46:29;;;;;;;1.73;1.00;;;;;;;10.66;94.22;97394.66;4186890;28;20686;-87
2023/04/02 00:48:41;;;;;;;1.63;0.80;;;;;;;10.66;93.70;97395.53;4180550;28;21050;-87
2023/04/02 00:50:45;;;;;;;1.47;0.77;;;;;;;10.64;94.49;97384.38;4169965;28;20674;-87
2023/04/02 00:52:50;;;;;;;1.67;1.03;;;;;;;10.61;94.15;97400.25;4184875;28;21251;-87
2023/04/02 00:54:59;;;;;;;1.63;0.70;;;;;;;10.59;94.42;97396.94;4183679;28;20662;-87
2023/04/02 00:57:03;;;;;;;1.40;0.80;;;;;;;10.55;93.86;97392.91;4187494;28;20690;-87
2023/04/02 00:59:19;;;;;;;2.97;1.07;;;;;;;10.55;93.31;97394.72;4193143;28;20632;-88
2023/04/02 01:01:26;;;;;;;2.13;1.07;;;;;;;10.55;93.37;97398.13;4173315;28;20624;-88
2023/04/02 01:03:36;;;;;;;2.80;0.90;;;;;;;10.59;93.31;97404.78;4185090;28;20647;-87
2023/04/02 01:05:43;;;;;;;1.47;1.00;;;;;;;10.60;93.85;97408.19;4186234;28;20662;-87
2023/04/02 01:08:03;;;;;;;1.40;1.00;;;;;;;10.60;93.36;97408.19;4185300;28;20622;-87
2023/04/02 01:10:22;;;;;;;1.70;0.90;;;;;;;10.58;92.98;97410.94;4185998;28;21294;-87
2023/04/02 01:12:38;;;;;;;3.93;0.90;;;;;;;10.58;93.07;97410.09;4183188;28;20632;-87
2023/04/02 01:14:51;;;;;;;1.60;0.90;;;;;;;10.60;93.97;97413.41;4176025;28;21240;-88
2023/04/02 01:16:59;;;;;;;2.40;0.93;;;;;;;10.57;92.91;97411.03;4191852;28;21278;-88
2023/04/02 01:19:13;;;;;;;3.70;1.27;;;;;;;10.58;93.57;97412.72;4167760;28;20644;-88
2023/04/02 01:21:35;;;;;;;1.20;0.80;;;;;;;10.58;93.51;97415.31;4184005;28;21239;-87
2023/04/02 01:23:48;;;;;;;2.50;0.90;;;;;;;10.58;93.24;97417.94;4182753;28;21216;-88
2023/04/02 01:25:57;;;;;;;1.70;1.07;;;;;;;10.60;94.19;97418.63;4184892;28;20655;-87
2023/04/02 01:28:06;;;;;;;1.50;0.87;;;;;;;10.59;92.98;97415.19;4169136;28;20671;-88
2023/04/02 01:30:13;;;;;;;1.57;0.87;;;;;;;10.57;92.80;97418.88;4170025;28;20702;-88
2023/04/02 01:32:20;;;;;;;2.30;1.10;;;;;;;10.58;92.91;97421.34;4186673;28;20616;-88
2023/04/02 01:34:26;;;;;;;2.47;1.23;;;;;;;10.57;93.03;97417.09;4187944;28;20701;-87
2023/04/02 01:36:36;;;;;;;1.50;0.80;;;;;;;10.55;92.82;97418.16;4192699;28;20628;-87
2023/04/02 01:38:46;;;;;;;1.57;0.70;;;;;;;10.52;92.17;97418.41;4184263;28;21447;-88
2023/04/02 01:40:55;;;;;;;3.00;0.70;;;;;;;10.37;91.65;97414.41;4187265;28;21312;-88
2023/04/02 01:43:06;;;;;;;1.07;0.70;;;;;;;10.31;91.98;97414.88;4188806;28;21271;-88
2023/04/02 01:45:13;;;;;;;1.47;0.60;;;;;;;10.27;92.38;97418.69;4183614;28;20656;-88
2023/04/02 01:47:19;;;;;;;1.10;0.60;;;;;;;10.17;92.29;97419.50;4170486;28;20623;-88
2023/04/02 01:49:23;;;;;;;1.23;0.80;;;;;;;10.13;92.59;97420.69;4187701;28;20639;-88
2023/04/02 01:51:30;;;;;;;1.43;0.70;;;;;;;10.07;92.61;97426.38;4189916;28;20627;-88
2023/04/02 01:53:35;;;;;;;1.92;0.77;;;;;;;9.96;92.26;97431.59;4183990;28;20634;-88
2023/04/02 01:55:42;;;;;;;1.87;0.70;;;;;;;9.90;94.20;97435.44;4185795;28;20231;-88
2023/04/02 01:57:49;;;;;;;1.07;0.70;;;;;;;9.90;94.11;97435.44;4180978;28;20640;-88
2023/04/02 01:59:53;;;;;;;1.98;0.70;;;;;;;9.94;94.21;97443.91;4174082;28;20658;-88
2023/04/02 02:02:01;;;;;;;2.78;0.80;;;;;;;9.86;95.23;97434.03;4185938;28;20197;-88
2023/04/02 02:04:07;;;;;;;1.50;0.83;;;;;;;9.76;96.16;97452.22;4179873;28;20205;-87
2023/04/02 02:06:13;;;;;;;0.90;0.60;;;;;;;9.77;96.57;97444.28;4167799;28;20649;-87
2023/04/02 02:08:26;;;;;;;1.53;0.63;;;;;;;9.79;96.83;97449.38;4187316;28;20624;-88
2023/04/02 02:10:34;;;;;;;1.90;0.80;;;;;;;9.80;97.55;97448.44;4185873;28;20688;-87
2023/04/02 02:12:37;;;;;;;1.30;0.80;;;;;;;9.79;97.17;97452.00;4182671;28;21219;-87
2023/04/02 02:14:46;;;;;;;1.17;0.80;;;;;;;9.82;97.69;97456.97;4185519;28;20305;-87
2023/04/02 02:16:52;;;;;;;1.83;1.07;;;;;;;9.85;98.29;97460.19;4184742;28;20622;-87
2023/04/02 02:19:00;;;;;;;1.55;0.90;;;;;;;9.89;98.13;97461.59;4181618;28;20639;-87
2023/04/02 02:21:05;;;;;;;2.10;0.80;;;;;;;9.92;98.24;97464.81;4187764;28;20201;-87
2023/04/02 02:23:11;;;;;;;2.75;1.10;;;;;;;9.96;98.00;97466.25;4187862;28;20648;-87
2023/04/02 02:25:18;;;;;;;1.20;0.70;;;;;;;9.96;97.90;97463.66;4186454;28;20225;-87
2023/04/02 02:27:42;;;;;;;2.10;0.93;;;;;;;9.97;97.96;97472.31;4187506;28;20643;-87
2023/04/02 02:29:49;;;;;;;2.53;1.20;;;;;;;10.00;98.13;97466.88;4172237;28;20620;-87
2023/04/02 02:31:54;;;;;;;2.42;1.20;;;;;;;10.02;98.06;97471.00;4174999;28;20632;-87
2023/04/02 02:34:03;;;;;;;1.73;1.00;;;;;;;10.05;98.05;97475.97;4187025;28;20211;-87
2023/04/02 02:36:10;;;;;;;2.20;1.93;;;;;;;10.09;98.35;97476.59;4178206;28;20399;-87
2023/04/02 02:38:31;;;;;;;2.10;1.90;;;;;;;10.10;98.28;97473.88;4188260;28;21116;-87
2023/04/02 02:40:43;;;;;;;3.97;2.63;;;;;;;10.09;97.79;97477.41;4176269;28;21299;-88
2023/04/02 02:42:49;;;;;;;3.10;2.43;;;;;;;10.07;98.02;97478.47;4205557;28;20196;-87
2023/04/02 02:44:54;;;;;;;6.27;4.00;;;;;;;10.06;98.21;97476.84;4205821;28;20635;-86
2023/04/02 02:47:01;;;;;;;8.97;8.07;;;;;;;10.08;97.84;97474.94;4194422;28;20683;-87
2023/04/02 02:49:07;;;;;;;6.37;5.63;;;;;;;10.09;98.15;97474.00;4191535;28;20637;-87
2023/04/02 02:51:17;;;;;;;6.13;5.20;;;;;;;10.09;98.10;97482.63;4193400;28;20732;-87
2023/04/02 02:53:23;;;;;;;3.65;2.63;;;;;;;10.08;97.86;97486.16;4191010;28;20679;-87
2023/04/02 02:55:30;;;;;;;2.20;2.00;;;;;;;10.09;97.82;97487.84;4188954;28;20213;-87
2023/04/02 02:57:47;;;;;;;4.00;2.27;;;;;;;10.10;97.95;97488.66;4189310;28;20631;-87
2023/04/02 02:59:51;;;;;;;2.80;1.60;;;;;;;10.08;98.17;97491.38;4171716;28;21195;-87
2023/04/02 03:01:54;;;;;;;2.10;1.83;;;;;;;10.07;97.72;97484.53;4178790;28;20972;-87
2023/04/02 03:03:57;;;;;;;3.00;1.83;;;;;;;10.08;98.00;97485.34;4187172;28;20721;-87
2023/04/02 03:06:05;;;;;;;4.00;3.33;;;;;;;10.08;98.31;97491.38;4185364;28;20659;-87
2023/04/02 03:08:15;;;;;;;6.80;4.60;;;;;;;10.08;97.54;97485.34;4196259;28;21079;-87
2023/04/02 03:10:22;;;;;;;9.70;7.40;;;;;;;10.12;97.44;97499.81;4171191;28;20734;-87
2023/04/02 03:12:35;;;;;;;7.20;6.50;;;;;;;10.12;97.56;97497.22;4207520;28;20622;-87
2023/04/02 03:14:43;;;;;;;5.55;4.95;;;;;;;10.12;97.95;97497.22;4190981;28;20623;-87
2023/04/02 03:16:49;;;;;;;7.73;4.70;;;;;;;10.12;97.83;97500.63;4188705;28;20669;-87
2023/04/02 03:18:56;;;;;;;6.43;4.70;;;;;;;10.10;97.92;97505.16;4190253;28;20994;-87
2023/04/02 03:21:05;;;;;;;10.87;8.43;;;;;;;10.12;98.09;97505.84;4193441;28;20234;-87
2023/04/02 03:23:15;;;;;;;13.97;9.27;;;;;;;10.13;98.75;97504.06;4202521;28;20644;-87
2023/04/02 03:25:28;;;;;;;11.43;8.67;;;;;;;10.14;98.58;97511.75;4191810;28;20628;-87
2023/04/02 03:27:35;;;;;;;9.33;6.87;;;;;;;10.15;98.49;97507.38;4178475;28;20628;-87
2023/04/02 03:29:41;;;;;;;9.47;6.33;;;;;;;10.16;98.59;97519.47;4184081;28;20659;-87
2023/04/02 03:31:48;;;;;;;9.00;5.03;;;;;;;10.16;98.61;97520.28;4169844;28;20616;-86
2023/04/02 03:33:55;;;;;;;4.68;2.92;;;;;;;10.16;99.06;97525.50;4188304;28;20627;-87
2023/04/02 03:36:05;;;;;;;3.03;2.20;;;;;;;10.18;99.08;97521.03;4190519;28;20212;-87
2023/04/02 03:38:13;;;;;;;2.30;2.10;;;;;;;10.19;98.98;97525.25;4189044;28;20626;-87
2023/04/02 03:40:21;;;;;;;3.05;1.67;;;;;;;10.22;98.96;97532.84;4191706;28;20630;-87
2023/04/02 03:42:25;;;;;;;3.10;1.40;;;;;;;10.24;98.28;97530.97;4184039;28;20308;-87
2023/04/02 03:44:36;;;;;;;3.97;1.80;;;;;;;10.27;98.75;97535.09;4179189;28;20690;-87
2023/04/02 03:46:41;;;;;;;3.43;1.30;;;;;;;10.26;98.65;97538.69;4184713;28;20687;-86
2023/04/02 03:48:46;;;;;;;6.87;3.70;;;;;;;10.28;98.21;97536.78;4201082;28;20659;-86
2023/04/02 03:50:53;;;;;;;3.13;2.20;;;;;;;10.27;97.61;97533.34;4173125;28;21028;-86
2023/04/02 03:52:58;;;;;;;2.38;1.58;;;;;;;10.25;97.93;97539.63;4187981;28;20643;-87
2023/04/02 03:55:03;;;;;;;1.70;1.30;;;;;;;10.23;97.39;97541.53;4169004;28;20218;-87
2023/04/02 03:57:12;;;;;;;2.30;1.03;;;;;;;10.23;97.42;97546.72;4178300;28;20625;-87
2023/04/02 03:59:21;;;;;;;1.80;1.30;;;;;;;10.23;98.26;97544.13;4176492;28;20632;-87
2023/04/02 04:01:30;;;;;;;1.90;1.35;;;;;;;10.24;97.74;97550.97;4183247;28;20628;-87
2023/04/02 04:03:39;;;;;;;1.73;1.10;;;;;;;10.23;97.79;97552.75;4185735;28;20743;-87
2023/04/02 04:05:47;;;;;;;2.13;1.23;;;;;;;10.25;98.17;97548.25;4178208;28;20735;-87
2023/04/02 04:07:53;;;;;;;9.50;1.13;;;;;;;10.25;97.74;97550.84;4168023;28;20713;-87
2023/04/02 04:09:59;;;;;;;2.37;1.20;;;;;;;10.27;97.51;97554.19;4169975;28;20643;-87
2023/04/02 04:12:09;;;;;;;1.95;1.20;;;;;;;10.30;98.02;97555.72;4189665;28;20631;-87
2023/04/02 04:14:17;;;;;;;2.67;1.00;;;;;;;10.31;97.58;97554.78;4174270;28;20201;-87
2023/04/02 04:16:22;;;;;;;3.83;1.48;;;;;;;10.31;98.11;97553.00;4174723;28;20636;-87
2023/04/02 04:18:33;;;;;;;2.80;1.10;;;;;;;10.33;98.35;97561.56;4191792;28;20205;-87
2023/04/02 04:20:44;;;;;;;1.90;1.60;;;;;;;10.32;97.25;97565.91;4188008;28;20628;-87
2023/04/02 04:22:54;;;;;;;2.40;1.70;;;;;;;10.33;96.97;97558.94;4172910;28;20669;-87
2023/04/02 04:25:04;;;;;;;2.70;1.70;;;;;;;10.30;97.69;97558.34;4191598;28;21098;-87
2023/04/02 04:27:15;;;;;;;3.33;1.30;;;;;;;10.33;97.04;97566.78;4176699;28;20231;-87
2023/04/02 04:29:44;;;;;;;3.37;1.53;;;;;;;10.34;97.54;97571.00;4187604;28;20656;-87
2023/04/02 04:31:53;;;;;;;2.10;1.60;;;;;;;10.34;97.49;97577.06;4187354;28;20652;-87
2023/04/02 04:34:08;;;;;;;2.87;1.30;;;;;;;10.32;97.19;97580.72;4187887;28;20655;-87
2023/04/02 04:36:20;;;;;;;3.57;1.60;;;;;;;10.32;98.04;97573.72;4172487;28;21259;-87
2023/04/02 04:38:31;;;;;;;2.73;1.47;;;;;;;10.32;97.16;97579.91;4173006;28;20734;-87
2023/04/02 04:40:42;;;;;;;2.60;1.27;;;;;;;10.33;97.29;97587.63;4173874;28;20640;-86
2023/04/02 04:42:47;;;;;;;1.60;1.17;;;;;;;10.35;97.07;97590.94;4183863;28;20770;-87
2023/04/02 04:44:56;;;;;;;2.30;1.40;;;;;;;10.36;96.09;97595.22;4174098;28;20683;-87
2023/04/02 04:47:02;;;;;;;3.97;1.50;;;;;;;10.36;97.42;97593.41;4173496;28;20763;-87
2023/04/02 04:49:09;;;;;;;4.00;1.40;;;;;;;10.35;96.65;97609.16;4175049;28;20626;-87
2023/04/02 04:51:19;;;;;;;2.97;1.37;;;;;;;10.37;97.79;97612.50;4177905;28;20621;-87
2023/04/02 04:53:24;;;;;;;3.40;1.43;;;;;;;10.38;96.53;97611.56;4172474;28;20732;-87
2023/04/02 04:55:33;;;;;;;1.97;1.40;;;;;;;10.39;96.45;97618.44;4188981;28;20735;-87
2023/04/02 04:57:40;;;;;;;2.27;1.10;;;;;;;10.40;97.55;97622.69;4192411;28;20634;-87
2023/04/02 04:59:52;;;;;;;1.47;1.30;;;;;;;10.40;97.85;97622.69;4185167;28;20685;-87
2023/04/02 05:02:01;;;;;;;4.13;1.40;;;;;;;10.40;97.18;97625.28;4171092;28;20644;-87
2023/04/02 05:04:11;;;;;;;2.77;1.50;;;;;;;10.38;97.14;97629.81;4185292;28;21095;-87
2023/04/02 05:06:28;;;;;;;1.50;1.30;;;;;;;10.36;97.60;97627.31;4185311;28;20623;-87
2023/04/02 05:08:35;;;;;;;3.40;1.63;;;;;;;10.36;97.84;97624.69;4176916;28;20677;-87
2023/04/02 05:10:42;;;;;;;2.75;1.35;;;;;;;10.39;97.24;97628.88;4190245;28;20627;-87
2023/04/02 05:12:51;;;;;;;2.00;1.00;;;;;;;10.39;96.73;97629.69;4168190;28;20203;-88
2023/04/02 05:14:58;;;;;;;2.80;1.10;;;;;;;10.39;97.48;97629.69;4170986;28;20738;-88
2023/04/02 05:17:04;;;;;;;1.30;1.00;;;;;;;10.40;97.46;97635.72;4175700;28;20718;-87
2023/04/02 05:19:11;;;;;;;4.13;1.73;;;;;;;10.41;96.84;97638.22;4188799;28;20625;-88
2023/04/02 05:21:18;;;;;;;3.60;2.10;;;;;;;10.35;96.75;97638.66;4187307;28;20681;-87
2023/04/02 05:23:25;;;;;;;3.77;2.90;;;;;;;10.34;97.95;97639.63;4173690;28;20730;-87
2023/04/02 05:25:31;;;;;;;4.53;2.70;;;;;;;10.35;97.69;97645.66;4174362;28;21031;-87
2023/04/02 05:27:40;;;;;;;5.10;3.07;;;;;;;10.34;97.61;97649.19;4170258;28;20649;-87
2023/04/02 05:29:47;;;;;;;2.90;2.53;;;;;;;10.34;97.95;97647.44;4201647;28;20642;-87
2023/04/02 05:31:55;;;;;;;3.40;2.87;;;;;;;10.35;98.44;97656.09;4184394;28;21285;-87
2023/04/02 05:33:59;;;;;;;3.40;1.90;;;;;;;10.35;98.16;97654.31;4185597;28;20628;-87
2023/04/02 05:36:04;;;;;;;4.43;1.50;;;;;;;10.36;98.34;97660.38;4186037;28;20635;-87
2023/04/02 05:38:19;;;;;;;2.17;1.50;;;;;;;10.36;98.20;97657.75;4184079;28;20632;-87
2023/04/02 05:40:24;;;;;;;1.93;1.67;;;;;;;10.37;98.53;97664.63;4185283;28;20649;-87
2023/04/02 05:42:29;;;;;;;2.30;1.53;;;;;;;10.37;98.21;97665.47;4187034;28;20719;-88
2023/04/02 05:44:48;;;;;;;1.57;1.47;;;;;;;10.41;97.39;97673.88;4175489;28;20640;-87
2023/04/02 05:46:55;;;;;;;2.50;1.53;;;;;;;10.43;98.70;97672.84;4186369;28;20635;-88
2023/04/02 05:49:05;;;;;;;2.80;1.33;;;;;;;10.47;98.41;97676.03;4191501;28;20678;-87
2023/04/02 05:51:14;;;;;;;1.70;1.30;;;;;;;10.49;98.10;97680.19;4187839;28;20636;-87
2023/04/02 05:53:20;;;;;;;1.70;1.50;;;;;;;10.51;98.95;97682.69;4188184;28;20664;-87
2023/04/02 05:55:45;;;;;;;2.90;2.20;;;;;;;10.54;98.12;97680.69;4186928;28;20636;-87
2023/04/02 05:57:52;;;;;;;6.40;5.67;;;;;;;10.56;97.51;97686.59;4178409;28;21201;-88
2023/04/02 06:00:20;;;;;;;6.60;5.90;;;;;;;10.57;97.72;97690.88;4188327;28;20624;-87
2023/04/02 06:02:30;;;;;;;2.70;2.40;;;;;;;10.60;98.16;97687.19;4193616;28;20647;-87
2023/04/02 06:04:37;;;;;;;5.50;1.73;;;;;;;10.63;96.89;97692.19;4180241;28;20642;-87
2023/04/02 06:06:48;;;;;;;9.17;5.37;;;;;;;10.65;97.49;97696.34;4187885;28;20808;-87
2023/04/02 06:08:57;;;;;;;9.43;4.03;;;;;;;10.67;96.68;97694.44;4177225;28;20660;-87
2023/04/02 06:11:06;;;;;;;6.93;3.00;;;;;;;10.68;97.05;97700.50;4178880;28;20774;-87
2023/04/02 06:13:13;;;;;;;5.13;3.27;;;;;;;10.67;98.21;97704.88;4180629;28;20639;-87
2023/04/02 06:15:21;;;;;;;6.97;3.47;;;;;;;10.69;97.37;97712.59;4180352;28;20627;-88
2023/04/02 06:17:28;;;;;;;3.33;3.03;;;;;;;10.68;97.20;97721.38;4192588;28;20635;-87
2023/04/02 06:19:36;;;;;;;3.63;2.57;;;;;;;10.68;97.87;97710.94;4191495;28;20723;-87
2023/04/02 06:21:43;;;;;;;3.30;1.70;;;;;;;10.69;97.72;97718.66;4190003;28;20658;-87
2023/04/02 06:23:52;;;;;;;3.87;1.73;;;;;;;10.69;97.77;97713.44;4193918;28;20689;-87
2023/04/02 06:25:59;;;;;;;2.00;1.60;;;;;;;10.71;96.79;97726.38;4178392;28;20619;-87
2023/04/02 06:28:06;;;;;;;2.13;1.50;;;;;;;10.71;97.96;97724.56;4195676;28;20761;-87
2023/04/02 06:30:16;;;;;;;1.77;1.53;;;;;;;10.72;97.74;97725.41;4195364;28;20623;-87
2023/04/02 06:32:24;;;;;;;1.70;1.50;;;;;;;10.74;97.46;97726.13;4192175;28;20688;-87
2023/04/02 06:34:29;;;;;;;2.07;1.87;;;;;;;10.76;97.55;97734.66;4188286;28;20628;-87
2023/04/02 06:36:56;;;;;;;2.10;1.60;;;;;;;10.77;97.82;97741.56;4175250;28;20632;-87
2023/04/02 06:39:04;;;;;;;3.00;1.60;;;;;;;10.77;98.08;97741.56;4176286;28;20640;-87
2023/04/02 06:41:13;;;;;;;2.80;1.67;;;;;;;10.77;97.31;97744.97;4196087;28;20704;-87
2023/04/02 06:43:54;;;;;;;1.60;1.23;;;;;;;10.77;96.72;97757.22;4190943;28;20652;-87
2023/04/02 06:46:21;;;;;;;2.53;1.60;;;;;;;10.76;98.03;97761.56;4173581;28;20652;-87
2023/04/02 06:48:46;;;;;;;2.23;2.03;;;;;;;10.76;97.76;97766.78;4196303;28;21145;-87
2023/04/02 06:50:52;;;;;;;2.43;1.67;;;;;;;10.78;96.98;97774.50;4188419;28;20624;-87
2023/04/02 06:52:58;;;;;;;4.03;1.80;;;;;;;10.78;96.91;97777.09;4193568;28;20624;-87
2023/04/02 06:55:07;;;;;;;3.83;1.97;;;;;;;10.80;96.47;97776.88;4193037;28;21313;-87
2023/04/02 06:57:10;;;;;;;2.40;1.70;;;;;;;10.83;96.87;97776.66;4188980;28;20623;-87
2023/04/02 06:59:17;;;;;;;2.27;1.50;;;;;;;10.83;96.90;97778.44;4197033;28;20993;-87
2023/04/02 07:01:24;;;;;;;1.93;1.63;;;;;;;10.85;97.07;97784.38;4194139;28;20623;-87
2023/04/02 07:03:29;;;;;;;4.10;1.90;;;;;;;10.87;97.76;97790.31;4189542;28;20654;-87
2023/04/02 07:05:37;;;;;;;2.00;1.77;;;;;;;10.90;98.07;97796.13;4175343;28;20658;-87
2023/04/02 07:07:44;;;;;;;2.00;1.80;;;;;;;10.91;96.68;97799.56;4188925;28;20647;-87
2023/04/02 07:09:48;;;;;;;2.93;1.80;;;;;;;10.92;97.94;97794.22;4187616;28;20664;-87
2023/04/02 07:11:52;;;;;;;1.93;1.70;;;;;;;10.94;97.65;97807.16;4188104;28;20658;-87
2023/04/02 07:13:55;;;;;;;2.00;1.70;;;;;;;10.92;97.93;97804.66;4178351;28;20739;-87
2023/04/02 07:16:00;;;;;;;3.30;1.90;;;;;;;10.94;96.42;97815.00;4170444;28;20641;-87
2023/04/02 07:18:04;;;;;;;2.10;1.90;;;;;;;10.93;97.77;97806.34;4189153;28;20635;-87
2023/04/02 07:20:24;;;;;;;2.30;1.93;;;;;;;10.93;96.62;97811.56;4185096;28;20628;-87
2023/04/02 07:22:29;;;;;;;5.73;2.17;;;;;;;10.94;96.62;97817.59;4183523;28;21258;-87
2023/04/02 07:24:35;;;;;;;3.30;2.23;;;;;;;10.94;98.67;97818.41;4184701;28;21316;-87
2023/04/02 07:26:38;;;;;;;3.20;2.13;;;;;;;10.95;98.96;97825.31;4193338;28;20663;-87
2023/04/02 07:28:42;;;;;;;4.80;2.47;;;;;;;10.97;99.04;97833.03;4178735;28;20714;-87
2023/04/02 07:30:45;;;;;;;6.27;2.57;;;;;;;10.95;98.19;97830.53;4191667;28;20624;-87
2023/04/02 07:32:48;;;;;;;2.60;2.33;;;;;;;10.96;97.93;97833.97;4189256;28;21138;-87
2023/04/02 07:34:52;;;;;;;4.30;2.50;;;;;;;10.98;98.21;97838.13;4184960;28;20644;-88
2023/04/02 07:36:55;;;;;;;2.70;2.30;;;;;;;10.99;97.72;97846.78;4194683;28;20714;-87
2023/04/02 07:38:59;;;;;;;3.20;2.30;;;;;;;11.01;98.95;97848.34;4172697;28;20633;-87
2023/04/02 07:41:05;;;;;;;2.50;2.13;;;;;;;11.05;98.55;97846.34;4178918;28;20728;-87
2023/04/02 07:43:09;;;;;;;4.20;2.77;;;;;;;11.06;97.10;97843.59;4190511;28;20631;-87
2023/04/02 07:45:12;;;;;;;3.90;2.30;;;;;;;11.06;96.84;97846.22;4190799;28;20624;-87
2023/04/02 07:47:15;;;;;;;3.83;2.50;;;;;;;11.07;96.58;97853.13;4176055;28;20653;-87
2023/04/02 07:49:18;;;;;;;2.50;2.30;;;;;;;11.11;96.95;97851.09;4193898;28;20693;-87
2023/04/02 07:51:23;;;;;;;3.40;3.10;;;;;;;11.16;96.93;97852.44;4188506;28;20731;-87
2023/04/02 07:53:29;;;;;;;5.60;3.00;;;;;;;11.23;98.05;97858.00;4177403;28;21080;-87
2023/04/02 07:55:34;;;;;;;2.77;2.57;;;;;;;11.27;97.85;97866.38;4184796;28;20660;-87
2023/04/02 07:57:40;;;;;;;2.60;2.40;;;;;;;11.33;97.07;97868.47;4180737;28;20639;-88
2023/04/02 07:59:46;;;;;;;4.93;2.50;;;;;;;11.38;98.63;97876.81;4170722;28;20678;-87
2023/04/02 08:01:50;;;;;;;3.17;2.40;;;;;;;11.43;97.17;97873.88;4183787;28;20639;-87
2023/04/02 08:03:54;;;;;;;9.30;3.77;;;;;;;11.46;97.96;97878.88;4183265;28;20635;-87
2023/04/02 08:05:58;;;;;;;2.97;2.57;;;;;;;11.47;96.77;97881.41;4189736;28;21206;-88
2023/04/02 08:08:01;;;;;;;3.23;2.40;;;;;;;11.45;96.90;97888.47;4184400;28;21172;-87
2023/04/02 08:10:05;;;;;;;3.60;2.50;;;;;;;11.45;96.14;97893.69;4168730;28;20652;-87
2023/04/02 08:12:12;;;;;;;2.53;2.20;;;;;;;11.49;96.13;97894.34;4176367;28;21219;-87
2023/04/02 08:14:15;;;;;;;3.40;2.50;;;;;;;11.50;96.07;97893.38;4189522;28;20636;-88
2023/04/02 08:16:18;;;;;;;4.67;2.73;;;;;;;11.52;96.28;97888.88;4200503;28;21052;-87
2023/04/02 08:18:22;;;;;;;2.93;2.63;;;;;;;11.56;96.20;97890.28;4187178;28;21030;-87
2023/04/02 08:20:25;;;;;;;4.80;3.90;;;;;;;11.56;95.28;97896.38;4177652;28;20636;-87
2023/04/02 08:22:28;;;;;;;3.13;2.73;;;;;;;11.58;94.69;97897.06;4173338;28;20670;-88
2023/04/02 08:24:31;;;;;;;2.30;2.10;;;;;;;11.57;95.18;97899.81;4184826;28;21020;-87
2023/04/02 08:26:35;;;;;;;2.83;2.37;;;;;;;11.57;95.76;97902.41;4186684;28;20990;-87
2023/04/02 08:28:39;;;;;;;3.00;2.43;;;;;;;11.55;95.88;97906.94;4186330;28;20697;-87
2023/04/02 08:30:43;;;;;;;8.43;7.73;;;;;;;11.54;96.54;97907.88;4188098;28;20612;-87
2023/04/02 08:32:47;;;;;;;15.30;13.43;;;;;;;11.57;97.32;97908.47;4183754;28;20658;-87
2023/04/02 08:34:50;;;;;;;3.90;3.50;;;;;;;11.60;95.69;97913.47;4187837;28;20616;-87
2023/04/02 08:36:56;;;;;;;7.00;6.30;;;;;;;11.64;96.35;97920.13;4186531;28;20620;-87
2023/04/02 08:38:59;;;;;;;7.53;6.87;;;;;;;11.73;98.09;97922.06;4169495;28;21064;-87
2023/04/02 08:41:04;;;;;;;7.00;6.40;;;;;;;11.79;98.51;97930.25;4184822;28;20632;-87
2023/04/02 08:43:27;;;;;;;5.33;4.83;;;;;;;11.83;97.87;97936.91;4185010;28;20636;-87
2023/04/02 08:45:40;;;;;;;3.90;3.50;;;;;;;11.84;97.59;97937.75;4183935;28;20642;-87
2023/04/02 08:47:46;;;;;;;3.60;3.17;;;;;;;11.81;97.32;97933.56;4184271;28;20676;-87
2023/04/02 08:49:51;;;;;;;4.67;3.40;;;;;;;11.80;96.58;97937.16;4182385;28;21145;-87
2023/04/02 08:51:54;;;;;;;4.73;3.07;;;;;;;11.78;96.87;97938.19;4183744;28;20961;-87
2023/04/02 08:54:01;;;;;;;3.37;3.00;;;;;;;11.78;96.11;97943.44;4171602;28;20632;-87
2023/04/02 08:56:08;;;;;;;4.30;3.40;;;;;;;11.74;95.35;97936.75;4173786;28;20632;-87
2023/04/02 08:58:21;;;;;;;3.60;3.30;;;;;;;11.71;93.84;97941.38;4185474;28;21229;-87
2023/04/02 09:00:31;;;;;;;3.10;2.80;;;;;;;11.72;95.71;97945.69;4186696;28;20624;-87
2023/04/02 09:02:40;;;;;;;3.37;2.23;;;;;;;11.74;94.86;97947.22;4172837;28;20660;-87
2023/04/02 09:04:43;;;;;;;4.87;2.60;;;;;;;11.80;95.57;97958.06;4191147;28;20663;-87
2023/04/02 09:06:47;;;;;;;4.07;3.20;;;;;;;11.83;94.76;97957.81;4185839;28;20624;-87
2023/04/02 09:08:52;;;;;;;3.23;2.43;;;;;;;11.85;94.98;97957.72;4188931;28;20616;-87
2023/04/02 09:11:00;;;;;;;5.33;2.90;;;;;;;11.88;94.71;97962.69;4187529;28;20655;-88
2023/04/02 09:13:07;;;;;;;2.60;2.40;;;;;;;11.89;96.33;97962.59;4173132;28;20620;-87
2023/04/02 09:15:19;;;;;;;4.40;2.27;;;;;;;11.95;94.10;97964.75;4187980;28;20720;-87
2023/04/02 09:17:24;;;;;;;2.30;2.10;;;;;;;12.00;94.07;97969.63;4185388;28;20624;-86
2023/04/02 09:19:33;;;;;;;3.70;2.00;;;;;;;12.03;93.72;97969.38;4188068;28;20639;-87
2023/04/02 09:21:40;;;;;;;2.90;2.30;;;;;;;12.04;94.72;97977.09;4189572;28;20952;-87
2023/04/02 09:23:43;;;;;;;4.53;2.40;;;;;;;12.05;94.35;97968.31;4172167;28;21522;-87
2023/04/02 09:25:48;;;;;;;4.00;2.77;;;;;;;11.93;91.84;97977.06;4176312;28;20643;-87
2023/04/02 09:28:09;;;;;;;2.87;2.40;;;;;;;11.95;93.18;97977.81;4183557;28;21263;-87
2023/04/02 09:30:23;;;;;;;3.20;2.43;;;;;;;12.07;92.76;97981.25;4186906;28;21243;-87
2023/04/02 09:32:38;;;;;;;3.20;2.40;;;;;;;12.16;93.22;97981.38;4184713;28;20632;-87
2023/04/02 09:34:43;;;;;;;2.37;2.17;;;;;;;12.23;93.61;97987.81;4184043;28;20639;-87
2023/04/02 09:36:46;;;;;;;2.80;2.50;;;;;;;12.31;92.54;97985.44;4184545;28;20666;-88
2023/04/02 09:39:05;;;;;;;3.33;2.33;;;;;;;12.33;91.93;97988.78;4186906;28;20638;-87
2023/04/02 09:41:19;;;;;;;4.40;2.83;;;;;;;12.32;92.70;97985.31;4188129;28;20659;-87
2023/04/02 09:43:24;;;;;;;2.57;1.80;;;;;;;12.29;90.84;97980.31;4179741;28;20624;-87
2023/04/02 09:45:28;;;;;;;2.43;1.90;;;;;;;12.38;90.73;97986.63;4185100;28;20628;-88
2023/04/02 09:47:32;;;;;;;2.30;1.90;;;;;;;12.50;90.96;97990.94;4184224;28;20624;-87
2023/04/02 09:49:36;;;;;;;3.40;2.40;;;;;;;12.57;91.53;97999.94;4186540;28;20624;-87
2023/04/02 09:51:41;;;;;;;5.60;4.90;;;;;;;12.58;92.17;98002.44;4193773;28;21263;-88
2023/04/02 09:53:46;;;;;;;4.57;3.30;;;;;;;12.47;90.58;97999.84;4167202;28;20668;-87
2023/04/02 09:55:49;;;;;;;2.83;2.43;;;;;;;12.37;89.25;97998.03;4172537;28;20625;-88
2023/04/02 09:58:07;;;;;;;2.67;2.40;;;;;;;12.41;91.11;98005.53;4175842;28;20736;-87
2023/04/02 10:00:17;;;;;;;2.50;2.00;;;;;;;12.43;90.71;98000.19;4185342;28;20619;-87
2023/04/02 10:02:34;;;;;;;3.20;1.70;;;;;;;12.41;91.52;98008.16;4186432;28;20639;-87